<?xml version="1.0" encoding="UTF-8"?>
<gpx xmlns:xsi="http://www.w3.org/2001/XMLSchema-instance" xmlns="http://www.topografix.com/GPX/1/1" xsi:schemaLocation="http://www.topografix.com/GPX/1/1 http://www.topografix.com/GPX/1/1/gpx.xsd http://www.garmin.com/xmlschemas/GpxExtensions/v3 http://www.garmin.com/xmlschemas/GpxExtensionsv3.xsd http://www.garmin.com/xmlschemas/TrackPointExtension/v1 http://www.garmin.com/xmlschemas/TrackPointExtensionv1.xsd http://www.topografix.com/GPX/gpx_style/0/2 http://www.topografix.com/GPX/gpx_style/0/2/gpx_style.xsd" xmlns:gpxtpx="http://www.garmin.com/xmlschemas/TrackPointExtension/v1" xmlns:gpxx="http://www.garmin.com/xmlschemas/GpxExtensions/v3" xmlns:gpx_style="http://www.topografix.com/GPX/gpx_style/0/2" version="1.1" creator="GPSMAP 66S">
<metadata>
    <name>agioi-saranta1</name>
    <author>
        <name>gpx.studio</name>
        <link href="https://gpx.studio"></link>
    </author>
</metadata>
<trk>
    <name>agioi-saranta1</name>
    <type>Running</type>
    <trkseg>
    <trkpt lat="34.99040010954051" lon="34.06070709228516">
        <ele>85.0</ele>
        <time>2023-04-19T07:54:36.849Z</time>
    </trkpt>
    <trkpt lat="34.99042810182533" lon="34.0605979588381">
        <ele>85.2</ele>
        <time>2023-04-19T07:54:41.756Z</time>
    </trkpt>
    <trkpt lat="34.99045609410056" lon="34.06048882539104">
        <ele>85.3</ele>
        <time>2023-04-19T07:54:46.663Z</time>
    </trkpt>
    <trkpt lat="34.9904796761" lon="34.0604166593">
        <ele>84.3</ele>
        <time>2023-04-19T07:54:49.997Z</time>
    </trkpt>
    <trkpt lat="34.9905912392" lon="34.0601846483">
        <ele>84.3</ele>
        <time>2023-04-19T07:55:07.997Z</time>
    </trkpt>
    <trkpt lat="34.9907551054" lon="34.059909638">
        <ele>84.3</ele>
        <time>2023-04-19T07:55:29.997Z</time>
    </trkpt>
    <trkpt lat="34.9907610565" lon="34.0599086322">
        <ele>84.3</ele>
        <time>2023-04-19T07:55:42.997Z</time>
    </trkpt>
    <trkpt lat="34.9907745514" lon="34.0598781221">
        <ele>84.3</ele>
        <time>2023-04-19T07:55:50.997Z</time>
    </trkpt>
    <trkpt lat="34.9908390082" lon="34.059773935">
        <ele>84.3</ele>
        <time>2023-04-19T07:56:07.997Z</time>
    </trkpt>
    <trkpt lat="34.990847474" lon="34.0597562492">
        <ele>84.3</ele>
        <time>2023-04-19T07:56:29.997Z</time>
    </trkpt>
    <trkpt lat="34.9909286946" lon="34.0596148465">
        <ele>83.8</ele>
        <time>2023-04-19T07:56:48.997Z</time>
    </trkpt>
    <trkpt lat="34.9909517448" lon="34.0595675725">
        <ele>83.8</ele>
        <time>2023-04-19T07:57:02.997Z</time>
    </trkpt>
    <trkpt lat="34.9909672514" lon="34.0595370624">
        <ele>83.8</ele>
        <time>2023-04-19T07:57:05.997Z</time>
    </trkpt>
    <trkpt lat="34.9910644814" lon="34.0593390819">
        <ele>83.8</ele>
        <time>2023-04-19T07:57:24.997Z</time>
    </trkpt>
    <trkpt lat="34.9911581073" lon="34.0591560211">
        <ele>83.8</ele>
        <time>2023-04-19T07:57:41.997Z</time>
    </trkpt>
    <trkpt lat="34.9912783038" lon="34.0588698629">
        <ele>83.8</ele>
        <time>2023-04-19T07:58:04.997Z</time>
    </trkpt>
    <trkpt lat="34.9913455267" lon="34.0586250275">
        <ele>83.8</ele>
        <time>2023-04-19T07:58:24.997Z</time>
    </trkpt>
    <trkpt lat="34.991488019" lon="34.058320513">
        <ele>82.8</ele>
        <time>2023-04-19T07:58:47.997Z</time>
    </trkpt>
    <trkpt lat="34.991649203" lon="34.0580648649">
        <ele>81.8</ele>
        <time>2023-04-19T07:59:08.997Z</time>
    </trkpt>
    <trkpt lat="34.9916920345" lon="34.0579850692">
        <ele>81.4</ele>
        <time>2023-04-19T07:59:26.997Z</time>
    </trkpt>
    <trkpt lat="34.9916869216" lon="34.0580030065">
        <ele>81.4</ele>
        <time>2023-04-19T07:59:49.997Z</time>
    </trkpt>
    <trkpt lat="34.9916874245" lon="34.0579947922">
        <ele>80.4</ele>
        <time>2023-04-19T08:00:07.997Z</time>
    </trkpt>
    <trkpt lat="34.9916919507" lon="34.0579999052">
        <ele>79.5</ele>
        <time>2023-04-19T08:01:02.997Z</time>
    </trkpt>
    <trkpt lat="34.9916818924" lon="34.0579994861">
        <ele>79.5</ele>
        <time>2023-04-19T08:01:53.997Z</time>
    </trkpt>
    <trkpt lat="34.9916817248" lon="34.0580005758">
        <ele>80.4</ele>
        <time>2023-04-19T08:02:19.997Z</time>
    </trkpt>
    <trkpt lat="34.9916897714" lon="34.0580045152">
        <ele>80.4</ele>
        <time>2023-04-19T08:02:36.997Z</time>
    </trkpt>
    <trkpt lat="34.991714498" lon="34.0579636954">
        <ele>80.4</ele>
        <time>2023-04-19T08:03:09.997Z</time>
    </trkpt>
    <trkpt lat="34.9917532224" lon="34.0579026751">
        <ele>80.4</ele>
        <time>2023-04-19T08:03:17.997Z</time>
    </trkpt>
    <trkpt lat="34.99172749" lon="34.057943495">
        <ele>80.4</ele>
        <time>2023-04-19T08:03:21.997Z</time>
    </trkpt>
    <trkpt lat="34.99169413" lon="34.0579967201">
        <ele>80.4</ele>
        <time>2023-04-19T08:03:32.997Z</time>
    </trkpt>
    <trkpt lat="34.9918293301" lon="34.0577393118">
        <ele>80.4</ele>
        <time>2023-04-19T08:03:53.997Z</time>
    </trkpt>
    <trkpt lat="34.9918757658" lon="34.0574689116">
        <ele>80.4</ele>
        <time>2023-04-19T08:04:12.997Z</time>
    </trkpt>
    <trkpt lat="34.9919769354" lon="34.0572151076">
        <ele>80.4</ele>
        <time>2023-04-19T08:04:31.997Z</time>
    </trkpt>
    <trkpt lat="34.9921087828" lon="34.056963902">
        <ele>81.4</ele>
        <time>2023-04-19T08:04:51.997Z</time>
    </trkpt>
    <trkpt lat="34.9922604952" lon="34.0566588845">
        <ele>81.4</ele>
        <time>2023-04-19T08:05:14.997Z</time>
    </trkpt>
    <trkpt lat="34.9923911691" lon="34.0563823655">
        <ele>81.8</ele>
        <time>2023-04-19T08:05:35.997Z</time>
    </trkpt>
    <trkpt lat="34.9925481621" lon="34.0561228618">
        <ele>82.3</ele>
        <time>2023-04-19T08:05:56.997Z</time>
    </trkpt>
    <trkpt lat="34.9927206617" lon="34.0559415612">
        <ele>82.8</ele>
        <time>2023-04-19T08:06:15.997Z</time>
    </trkpt>
    <trkpt lat="34.9927711207" lon="34.0558857378">
        <ele>82.8</ele>
        <time>2023-04-19T08:06:29.997Z</time>
    </trkpt>
    <trkpt lat="34.9927569553" lon="34.0558562335">
        <ele>82.8</ele>
        <time>2023-04-19T08:06:43.997Z</time>
    </trkpt>
    <trkpt lat="34.9927567877" lon="34.0558533836">
        <ele>82.8</ele>
        <time>2023-04-19T08:07:14.997Z</time>
    </trkpt>
    <trkpt lat="34.99275662" lon="34.0558560658">
        <ele>82.8</ele>
        <time>2023-04-19T08:07:34.997Z</time>
    </trkpt>
    <trkpt lat="34.9927857053" lon="34.0558802057">
        <ele>82.8</ele>
        <time>2023-04-19T08:07:44.997Z</time>
    </trkpt>
    <trkpt lat="34.9927564524" lon="34.0558565687">
        <ele>82.8</ele>
        <time>2023-04-19T08:08:00.997Z</time>
    </trkpt>
    <trkpt lat="34.9927639961" lon="34.0558688063">
        <ele>82.8</ele>
        <time>2023-04-19T08:08:12.997Z</time>
    </trkpt>
    <trkpt lat="34.992755698" lon="34.0558608435">
        <ele>82.8</ele>
        <time>2023-04-19T08:08:29.997Z</time>
    </trkpt>
    <trkpt lat="34.9927572068" lon="34.0558639448">
        <ele>82.8</ele>
        <time>2023-04-19T08:08:30.997Z</time>
    </trkpt>
    <trkpt lat="34.9927619845" lon="34.0558991488">
        <ele>82.8</ele>
        <time>2023-04-19T08:08:33.997Z</time>
    </trkpt>
    <trkpt lat="34.9927745573" lon="34.0558782779">
        <ele>82.8</ele>
        <time>2023-04-19T08:08:37.997Z</time>
    </trkpt>
    <trkpt lat="34.9927605595" lon="34.055870818">
        <ele>83.3</ele>
        <time>2023-04-19T08:08:46.997Z</time>
    </trkpt>
    <trkpt lat="34.9927716237" lon="34.0558993164">
        <ele>82.8</ele>
        <time>2023-04-19T08:08:52.997Z</time>
    </trkpt>
    <trkpt lat="34.9927829392" lon="34.0558750089">
        <ele>82.8</ele>
        <time>2023-04-19T08:08:56.997Z</time>
    </trkpt>
    <trkpt lat="34.9927657563" lon="34.0558574907">
        <ele>82.8</ele>
        <time>2023-04-19T08:09:00.997Z</time>
    </trkpt>
    <trkpt lat="34.992927108" lon="34.055644339">
        <ele>82.8</ele>
        <time>2023-04-19T08:09:20.997Z</time>
    </trkpt>
    <trkpt lat="34.9931300338" lon="34.055403946">
        <ele>82.8</ele>
        <time>2023-04-19T08:09:42.997Z</time>
    </trkpt>
    <trkpt lat="34.993277723" lon="34.055091301">
        <ele>82.8</ele>
        <time>2023-04-19T08:10:05.997Z</time>
    </trkpt>
    <trkpt lat="34.9933672417" lon="34.054730041">
        <ele>82.3</ele>
        <time>2023-04-19T08:10:29.997Z</time>
    </trkpt>
    <trkpt lat="34.9933006056" lon="34.0543491673">
        <ele>81.8</ele>
        <time>2023-04-19T08:10:54.997Z</time>
    </trkpt>
    <trkpt lat="34.9932326283" lon="34.0540564712">
        <ele>81.4</ele>
        <time>2023-04-19T08:11:14.997Z</time>
    </trkpt>
    <trkpt lat="34.9931524135" lon="34.0537516214">
        <ele>81.8</ele>
        <time>2023-04-19T08:11:35.997Z</time>
    </trkpt>
    <trkpt lat="34.9930890463" lon="34.0534250624">
        <ele>81.8</ele>
        <time>2023-04-19T08:11:58.997Z</time>
    </trkpt>
    <trkpt lat="34.9930589553" lon="34.0531808138">
        <ele>82.3</ele>
        <time>2023-04-19T08:12:16.997Z</time>
    </trkpt>
    <trkpt lat="34.993106313" lon="34.0529301111">
        <ele>83.3</ele>
        <time>2023-04-19T08:12:35.997Z</time>
    </trkpt>
    <trkpt lat="34.9931580294" lon="34.052679576">
        <ele>84.3</ele>
        <time>2023-04-19T08:12:54.997Z</time>
    </trkpt>
    <trkpt lat="34.9931749608" lon="34.0523820184">
        <ele>84.3</ele>
        <time>2023-04-19T08:13:15.997Z</time>
    </trkpt>
    <trkpt lat="34.9931713566" lon="34.0523194056">
        <ele>84.3</ele>
        <time>2023-04-19T08:13:20.997Z</time>
    </trkpt>
    <trkpt lat="34.9931631424" lon="34.0520384442">
        <ele>84.3</ele>
        <time>2023-04-19T08:13:42.997Z</time>
    </trkpt>
    <trkpt lat="34.9931626394" lon="34.0517557226">
        <ele>84.3</ele>
        <time>2023-04-19T08:14:03.997Z</time>
    </trkpt>
    <trkpt lat="34.9931617174" lon="34.0516660362">
        <ele>84.7</ele>
        <time>2023-04-19T08:14:18.997Z</time>
    </trkpt>
    <trkpt lat="34.9932229891" lon="34.0515931137">
        <ele>85.2</ele>
        <time>2023-04-19T08:14:43.997Z</time>
    </trkpt>
    <trkpt lat="34.9932224024" lon="34.0515899286">
        <ele>84.7</ele>
        <time>2023-04-19T08:15:07.997Z</time>
    </trkpt>
    <trkpt lat="34.9932208098" lon="34.0515921079">
        <ele>84.3</ele>
        <time>2023-04-19T08:16:28.997Z</time>
    </trkpt>
    <trkpt lat="34.9932218995" lon="34.0516423155">
        <ele>84.3</ele>
        <time>2023-04-19T08:17:05.997Z</time>
    </trkpt>
    <trkpt lat="34.9931817502" lon="34.0517143998">
        <ele>83.8</ele>
        <time>2023-04-19T08:17:19.997Z</time>
    </trkpt>
    <trkpt lat="34.9932042975" lon="34.0516556427">
        <ele>83.8</ele>
        <time>2023-04-19T08:17:24.997Z</time>
    </trkpt>
    <trkpt lat="34.9933582731" lon="34.0514585841">
        <ele>84.7</ele>
        <time>2023-04-19T08:17:43.997Z</time>
    </trkpt>
    <trkpt lat="34.9935888592" lon="34.05142162">
        <ele>84.7</ele>
        <time>2023-04-19T08:18:02.997Z</time>
    </trkpt>
    <trkpt lat="34.9938028492" lon="34.0513208695">
        <ele>85.2</ele>
        <time>2023-04-19T08:18:22.997Z</time>
    </trkpt>
    <trkpt lat="34.9940000754" lon="34.0511440113">
        <ele>85.7</ele>
        <time>2023-04-19T08:18:43.997Z</time>
    </trkpt>
    <trkpt lat="34.9941780232" lon="34.0510045364">
        <ele>86.2</ele>
        <time>2023-04-19T08:19:02.997Z</time>
    </trkpt>
    <trkpt lat="34.9943191744" lon="34.0508243255">
        <ele>87.1</ele>
        <time>2023-04-19T08:19:20.997Z</time>
    </trkpt>
    <trkpt lat="34.9944860581" lon="34.0506702662">
        <ele>87.6</ele>
        <time>2023-04-19T08:19:39.997Z</time>
    </trkpt>
    <trkpt lat="34.9946469907" lon="34.0505353175">
        <ele>87.6</ele>
        <time>2023-04-19T08:19:59.997Z</time>
    </trkpt>
    <trkpt lat="34.994811276" lon="34.0503836051">
        <ele>87.6</ele>
        <time>2023-04-19T08:20:17.997Z</time>
    </trkpt>
    <trkpt lat="34.9950302113" lon="34.0502318926">
        <ele>88.1</ele>
        <time>2023-04-19T08:20:38.997Z</time>
    </trkpt>
    <trkpt lat="34.995265156" lon="34.050104823">
        <ele>87.6</ele>
        <time>2023-04-19T08:20:59.997Z</time>
    </trkpt>
    <trkpt lat="34.9954451993" lon="34.0499221813">
        <ele>88.6</ele>
        <time>2023-04-19T08:21:18.997Z</time>
    </trkpt>
    <trkpt lat="34.9956280086" lon="34.0497053415">
        <ele>88.6</ele>
        <time>2023-04-19T08:21:39.997Z</time>
    </trkpt>
    <trkpt lat="34.9958479498" lon="34.0494596679">
        <ele>89.5</ele>
        <time>2023-04-19T08:22:03.997Z</time>
    </trkpt>
    <trkpt lat="34.9960466847" lon="34.0492274892">
        <ele>90.0</ele>
        <time>2023-04-19T08:22:25.997Z</time>
    </trkpt>
    <trkpt lat="34.9962139875" lon="34.0489855036">
        <ele>90.5</ele>
        <time>2023-04-19T08:22:46.997Z</time>
    </trkpt>
    <trkpt lat="34.9963284843" lon="34.0487410873">
        <ele>91.0</ele>
        <time>2023-04-19T08:23:05.997Z</time>
    </trkpt>
    <trkpt lat="34.9964538775" lon="34.0484612994">
        <ele>91.0</ele>
        <time>2023-04-19T08:23:26.997Z</time>
    </trkpt>
    <trkpt lat="34.9965688772" lon="34.0482002869">
        <ele>91.0</ele>
        <time>2023-04-19T08:23:46.997Z</time>
    </trkpt>
    <trkpt lat="34.9967864715" lon="34.0481621493">
        <ele>91.0</ele>
        <time>2023-04-19T08:24:04.997Z</time>
    </trkpt>
    <trkpt lat="34.9969836138" lon="34.0480283741">
        <ele>91.0</ele>
        <time>2023-04-19T08:24:24.997Z</time>
    </trkpt>
    <trkpt lat="34.9970804248" lon="34.0477827843">
        <ele>90.5</ele>
        <time>2023-04-19T08:24:43.997Z</time>
    </trkpt>
    <trkpt lat="34.9971414451" lon="34.0474638529">
        <ele>91.0</ele>
        <time>2023-04-19T08:25:05.997Z</time>
    </trkpt>
    <trkpt lat="34.9973055627" lon="34.0472631902">
        <ele>91.0</ele>
        <time>2023-04-19T08:25:24.997Z</time>
    </trkpt>
    <trkpt lat="34.9975618813" lon="34.0470870025">
        <ele>91.0</ele>
        <time>2023-04-19T08:25:48.997Z</time>
    </trkpt>
    <trkpt lat="34.9977826606" lon="34.0470201988">
        <ele>91.5</ele>
        <time>2023-04-19T08:26:07.997Z</time>
    </trkpt>
    <trkpt lat="34.9979791325" lon="34.0470525529">
        <ele>91.5</ele>
        <time>2023-04-19T08:26:24.997Z</time>
    </trkpt>
    <trkpt lat="34.9980934616" lon="34.0470333584">
        <ele>91.5</ele>
        <time>2023-04-19T08:26:37.997Z</time>
    </trkpt>
    <trkpt lat="34.9982217047" lon="34.0469358768">
        <ele>91.5</ele>
        <time>2023-04-19T08:26:50.997Z</time>
    </trkpt>
    <trkpt lat="34.9982496165" lon="34.0466824081">
        <ele>91.5</ele>
        <time>2023-04-19T08:27:08.997Z</time>
    </trkpt>
    <trkpt lat="34.998401748" lon="34.0464875288">
        <ele>91.9</ele>
        <time>2023-04-19T08:27:26.997Z</time>
    </trkpt>
    <trkpt lat="34.9984890036" lon="34.0464259218">
        <ele>91.9</ele>
        <time>2023-04-19T08:27:44.997Z</time>
    </trkpt>
    <trkpt lat="34.9986022431" lon="34.0463659912">
        <ele>91.9</ele>
        <time>2023-04-19T08:27:57.997Z</time>
    </trkpt>
    <trkpt lat="34.9987878185" lon="34.0462401789">
        <ele>92.4</ele>
        <time>2023-04-19T08:28:18.997Z</time>
    </trkpt>
    <trkpt lat="34.9989596475" lon="34.0461158752">
        <ele>92.4</ele>
        <time>2023-04-19T08:28:35.997Z</time>
    </trkpt>
    <trkpt lat="34.9991659261" lon="34.0459293779">
        <ele>92.4</ele>
        <time>2023-04-19T08:28:56.997Z</time>
    </trkpt>
    <trkpt lat="34.9993786588" lon="34.045782527">
        <ele>92.4</ele>
        <time>2023-04-19T08:29:16.997Z</time>
    </trkpt>
    <trkpt lat="34.9995649885" lon="34.0456362627">
        <ele>92.4</ele>
        <time>2023-04-19T08:29:35.997Z</time>
    </trkpt>
    <trkpt lat="34.9996997695" lon="34.0454968717">
        <ele>92.9</ele>
        <time>2023-04-19T08:29:55.997Z</time>
    </trkpt>
    <trkpt lat="34.999713935" lon="34.0454705525">
        <ele>92.9</ele>
        <time>2023-04-19T08:30:39.997Z</time>
    </trkpt>
    <trkpt lat="34.9997587781" lon="34.0453913435">
        <ele>92.4</ele>
        <time>2023-04-19T08:30:47.997Z</time>
    </trkpt>
    <trkpt lat="34.9997553416" lon="34.0454340912">
        <ele>92.4</ele>
        <time>2023-04-19T08:30:51.997Z</time>
    </trkpt>
    <trkpt lat="34.9996941537" lon="34.0454998054">
        <ele>92.4</ele>
        <time>2023-04-19T08:31:07.997Z</time>
    </trkpt>
    <trkpt lat="34.9996970035" lon="34.0455009788">
        <ele>92.4</ele>
        <time>2023-04-19T08:31:15.997Z</time>
    </trkpt>
    <trkpt lat="34.9997628853" lon="34.0454211831">
        <ele>91.9</ele>
        <time>2023-04-19T08:31:25.997Z</time>
    </trkpt>
    <trkpt lat="34.9996944889" lon="34.0455047507">
        <ele>91.9</ele>
        <time>2023-04-19T08:31:42.997Z</time>
    </trkpt>
    <trkpt lat="34.9996944889" lon="34.0455046669">
        <ele>91.5</ele>
        <time>2023-04-19T08:31:59.997Z</time>
    </trkpt>
    <trkpt lat="34.9997663219" lon="34.045413807">
        <ele>91.5</ele>
        <time>2023-04-19T08:32:04.997Z</time>
    </trkpt>
    <trkpt lat="34.9997957423" lon="34.0453623421">
        <ele>91.0</ele>
        <time>2023-04-19T08:32:12.997Z</time>
    </trkpt>
    <trkpt lat="34.9996954948" lon="34.0455034096">
        <ele>90.5</ele>
        <time>2023-04-19T08:32:29.997Z</time>
    </trkpt>
    <trkpt lat="34.9997078162" lon="34.0454802755">
        <ele>90.5</ele>
        <time>2023-04-19T08:32:32.997Z</time>
    </trkpt>
    <trkpt lat="34.9997360632" lon="34.0454403777">
        <ele>90.5</ele>
        <time>2023-04-19T08:32:36.997Z</time>
    </trkpt>
    <trkpt lat="34.9998793937" lon="34.0452317521">
        <ele>90.0</ele>
        <time>2023-04-19T08:32:54.997Z</time>
    </trkpt>
    <trkpt lat="35.0001078006" lon="34.0450727474">
        <ele>89.1</ele>
        <time>2023-04-19T08:33:15.997Z</time>
    </trkpt>
    <trkpt lat="35.0003167614" lon="34.0449133236">
        <ele>88.6</ele>
        <time>2023-04-19T08:33:35.997Z</time>
    </trkpt>
    <trkpt lat="35.0005180947" lon="34.0447174385">
        <ele>88.1</ele>
        <time>2023-04-19T08:33:56.997Z</time>
    </trkpt>
    <trkpt lat="35.0006945338" lon="34.0445178654">
        <ele>88.6</ele>
        <time>2023-04-19T08:34:17.997Z</time>
    </trkpt>
    <trkpt lat="35.0008703023" lon="34.044339247">
        <ele>88.6</ele>
        <time>2023-04-19T08:34:38.997Z</time>
    </trkpt>
    <trkpt lat="35.0009969529" lon="34.0442589484">
        <ele>88.6</ele>
        <time>2023-04-19T08:34:51.997Z</time>
    </trkpt>
    <trkpt lat="35.0012204144" lon="34.0440741275">
        <ele>88.6</ele>
        <time>2023-04-19T08:35:14.997Z</time>
    </trkpt>
    <trkpt lat="35.0013958476" lon="34.0438945871">
        <ele>89.5</ele>
        <time>2023-04-19T08:35:33.997Z</time>
    </trkpt>
    <trkpt lat="35.0015890505" lon="34.0436691977">
        <ele>90.5</ele>
        <time>2023-04-19T08:35:54.997Z</time>
    </trkpt>
    <trkpt lat="35.0018429384" lon="34.0434334986">
        <ele>91.0</ele>
        <time>2023-04-19T08:36:19.997Z</time>
    </trkpt>
    <trkpt lat="35.0020643044" lon="34.0432797745">
        <ele>91.0</ele>
        <time>2023-04-19T08:36:39.997Z</time>
    </trkpt>
    <trkpt lat="35.0022418331" lon="34.0431381203">
        <ele>91.5</ele>
        <time>2023-04-19T08:36:59.997Z</time>
    </trkpt>
    <trkpt lat="35.0022596866" lon="34.0431317501">
        <ele>91.9</ele>
        <time>2023-04-19T08:37:24.997Z</time>
    </trkpt>
    <trkpt lat="35.0022950582" lon="34.0431081969">
        <ele>91.9</ele>
        <time>2023-04-19T08:37:28.997Z</time>
    </trkpt>
    <trkpt lat="35.0023311004" lon="34.0430799499">
        <ele>91.5</ele>
        <time>2023-04-19T08:37:32.997Z</time>
    </trkpt>
    <trkpt lat="35.0025243033" lon="34.0429570712">
        <ele>91.5</ele>
        <time>2023-04-19T08:37:50.997Z</time>
    </trkpt>
    <trkpt lat="35.002554981" lon="34.0429255553">
        <ele>91.9</ele>
        <time>2023-04-19T08:37:56.997Z</time>
    </trkpt>
    <trkpt lat="35.0025772769" lon="34.0429158323">
        <ele>91.9</ele>
        <time>2023-04-19T08:37:58.997Z</time>
    </trkpt>
    <trkpt lat="35.0027925242" lon="34.0427817218">
        <ele>100.3</ele>
        <time>2023-04-19T08:38:47.109Z</time>
    </trkpt>
    <trkpt lat="35.00288477745015" lon="34.042195742949566">
        <ele>100.7</ele>
        <time>2023-04-19T08:40:24.419Z</time>
    </trkpt>
    <trkpt lat="35.00297703059625" lon="34.04160976409913">
        <ele>101.4</ele>
        <time>2023-04-19T08:42:01.729Z</time>
    </trkpt>
    <trkpt lat="35.00326264751532" lon="34.04130399227144">
        <ele>101.6</ele>
        <time>2023-04-19T08:43:17.359Z</time>
    </trkpt>
    <trkpt lat="35.003548263437295" lon="34.04099822044373">
        <ele>103.1</ele>
        <time>2023-04-19T08:44:32.989Z</time>
    </trkpt>
    <trkpt lat="35.00393348317553" lon="34.04086247552187">
        <ele>104.3</ele>
        <time>2023-04-19T08:45:52.813Z</time>
    </trkpt>
    <trkpt lat="35.0043187011" lon="34.0407267306">
        <ele>105.2</ele>
        <time>2023-04-19T08:47:31.306Z</time>
    </trkpt>
    <trkpt lat="35.0043292623" lon="34.040674679">
        <ele>91.5</ele>
        <time>2023-04-19T08:47:42.096Z</time>
    </trkpt>
    <trkpt lat="35.0043208804" lon="34.0406182688">
        <ele>91.9</ele>
        <time>2023-04-19T08:47:47.096Z</time>
    </trkpt>
    <trkpt lat="35.004309481" lon="34.040496815">
        <ele>92.9</ele>
        <time>2023-04-19T08:47:58.096Z</time>
    </trkpt>
    <trkpt lat="35.0042563397" lon="34.0404155105">
        <ele>93.9</ele>
        <time>2023-04-19T08:48:07.096Z</time>
    </trkpt>
    <trkpt lat="35.0041762087" lon="34.0403482877">
        <ele>94.8</ele>
        <time>2023-04-19T08:48:24.096Z</time>
    </trkpt>
    <trkpt lat="35.0041754544" lon="34.0403474495">
        <ele>95.3</ele>
        <time>2023-04-19T08:48:28.096Z</time>
    </trkpt>
    <trkpt lat="35.0041338801" lon="34.0403429233">
        <ele>95.3</ele>
        <time>2023-04-19T08:48:32.096Z</time>
    </trkpt>
    <trkpt lat="35.0040130131" lon="34.0403415821">
        <ele>96.3</ele>
        <time>2023-04-19T08:48:50.096Z</time>
    </trkpt>
    <trkpt lat="35.0040104985" lon="34.0403385647">
        <ele>96.3</ele>
        <time>2023-04-19T08:48:51.096Z</time>
    </trkpt>
    <trkpt lat="35.0040022004" lon="34.0403196216">
        <ele>96.8</ele>
        <time>2023-04-19T08:48:53.096Z</time>
    </trkpt>
    <trkpt lat="35.0039633084" lon="34.0402535722">
        <ele>97.2</ele>
        <time>2023-04-19T08:49:00.096Z</time>
    </trkpt>
    <trkpt lat="35.0038297847" lon="34.040048467">
        <ele>98.7</ele>
        <time>2023-04-19T08:49:20.096Z</time>
    </trkpt>
    <trkpt lat="35.0036779884" lon="34.0398556832">
        <ele>100.1</ele>
        <time>2023-04-19T08:49:39.096Z</time>
    </trkpt>
    <trkpt lat="35.0035439618" lon="34.0396472253">
        <ele>101.1</ele>
        <time>2023-04-19T08:49:58.096Z</time>
    </trkpt>
    <trkpt lat="35.0034791697" lon="34.0393975284">
        <ele>102.0</ele>
        <time>2023-04-19T08:50:18.096Z</time>
    </trkpt>
    <trkpt lat="35.0034448877" lon="34.0391474962">
        <ele>103.5</ele>
        <time>2023-04-19T08:50:38.096Z</time>
    </trkpt>
    <trkpt lat="35.0035272818" lon="34.0389297344">
        <ele>104.4</ele>
        <time>2023-04-19T08:50:56.096Z</time>
    </trkpt>
    <trkpt lat="35.003652256" lon="34.0387795307">
        <ele>105.4</ele>
        <time>2023-04-19T08:51:12.096Z</time>
    </trkpt>
    <trkpt lat="35.00374672" lon="34.038632093">
        <ele>107.3</ele>
        <time>2023-04-19T08:51:27.096Z</time>
    </trkpt>
    <trkpt lat="35.0038362388" lon="34.0383890178">
        <ele>108.3</ele>
        <time>2023-04-19T08:51:48.096Z</time>
    </trkpt>
    <trkpt lat="35.0039214827" lon="34.038178632">
        <ele>110.2</ele>
        <time>2023-04-19T08:52:06.096Z</time>
    </trkpt>
    <trkpt lat="35.0040000211" lon="34.0379918832">
        <ele>112.1</ele>
        <time>2023-04-19T08:52:23.096Z</time>
    </trkpt>
    <trkpt lat="35.0040799845" lon="34.037813684">
        <ele>113.6</ele>
        <time>2023-04-19T08:52:39.096Z</time>
    </trkpt>
    <trkpt lat="35.0041664019" lon="34.0376379993">
        <ele>115.0</ele>
        <time>2023-04-19T08:52:56.096Z</time>
    </trkpt>
    <trkpt lat="35.0042246561" lon="34.037510762">
        <ele>116.0</ele>
        <time>2023-04-19T08:53:15.096Z</time>
    </trkpt>
    <trkpt lat="35.0042398274" lon="34.0374241769">
        <ele>116.5</ele>
        <time>2023-04-19T08:53:42.096Z</time>
    </trkpt>
    <trkpt lat="35.0042422581" lon="34.0374516696">
        <ele>116.5</ele>
        <time>2023-04-19T08:53:58.096Z</time>
    </trkpt>
    <trkpt lat="35.0042404141" lon="34.0374478977">
        <ele>116.9</ele>
        <time>2023-04-19T08:54:33.096Z</time>
    </trkpt>
    <trkpt lat="35.0042416714" lon="34.0374104306">
        <ele>116.9</ele>
        <time>2023-04-19T08:54:36.096Z</time>
    </trkpt>
    <trkpt lat="35.0042513944" lon="34.0373625699">
        <ele>117.4</ele>
        <time>2023-04-19T08:54:43.096Z</time>
    </trkpt>
    <trkpt lat="35.0042361394" lon="34.0374281164">
        <ele>117.9</ele>
        <time>2023-04-19T08:54:58.096Z</time>
    </trkpt>
    <trkpt lat="35.0042156037" lon="34.0373865422">
        <ele>118.4</ele>
        <time>2023-04-19T08:55:03.096Z</time>
    </trkpt>
    <trkpt lat="35.0042042881" lon="34.0373675991">
        <ele>118.4</ele>
        <time>2023-04-19T08:55:05.096Z</time>
    </trkpt>
    <trkpt lat="35.0041004363" lon="34.0372849535">
        <ele>118.9</ele>
        <time>2023-04-19T08:55:23.096Z</time>
    </trkpt>
    <trkpt lat="35.0040390808" lon="34.0372274537">
        <ele>118.9</ele>
        <time>2023-04-19T08:55:36.096Z</time>
    </trkpt>
    <trkpt lat="35.0040073134" lon="34.0371957701">
        <ele>119.8</ele>
        <time>2023-04-19T08:55:53.096Z</time>
    </trkpt>
    <trkpt lat="35.0039990153" lon="34.0371833649">
        <ele>119.8</ele>
        <time>2023-04-19T08:56:09.096Z</time>
    </trkpt>
    <trkpt lat="35.0039759651" lon="34.0371587221">
        <ele>119.8</ele>
        <time>2023-04-19T08:56:12.096Z</time>
    </trkpt>
    <trkpt lat="35.003942186" lon="34.0371280443">
        <ele>119.8</ele>
        <time>2023-04-19T08:56:16.096Z</time>
    </trkpt>
    <trkpt lat="35.0038043037" lon="34.0369253699">
        <ele>120.8</ele>
        <time>2023-04-19T08:56:35.096Z</time>
    </trkpt>
    <trkpt lat="35.0036699418" lon="34.0367874876">
        <ele>120.8</ele>
        <time>2023-04-19T08:56:50.096Z</time>
    </trkpt>
    <trkpt lat="35.0035654195" lon="34.0365355276">
        <ele>121.3</ele>
        <time>2023-04-19T08:57:11.096Z</time>
    </trkpt>
    <trkpt lat="35.0035547744" lon="34.0363072883">
        <ele>121.7</ele>
        <time>2023-04-19T08:57:29.096Z</time>
    </trkpt>
    <trkpt lat="35.0035442971" lon="34.0362423286">
        <ele>122.2</ele>
        <time>2023-04-19T08:57:47.096Z</time>
    </trkpt>
    <trkpt lat="35.0035084225" lon="34.0361262392">
        <ele>122.7</ele>
        <time>2023-04-19T08:58:11.096Z</time>
    </trkpt>
    <trkpt lat="35.0034668483" lon="34.0360602736">
        <ele>123.2</ele>
        <time>2023-04-19T08:58:19.096Z</time>
    </trkpt>
    <trkpt lat="35.0034184009" lon="34.0360018518">
        <ele>122.7</ele>
        <time>2023-04-19T08:58:34.096Z</time>
    </trkpt>
    <trkpt lat="35.0034095999" lon="34.0359953977">
        <ele>122.7</ele>
        <time>2023-04-19T08:58:35.096Z</time>
    </trkpt>
    <trkpt lat="35.0033093523" lon="34.0358974971">
        <ele>123.2</ele>
        <time>2023-04-19T08:58:49.096Z</time>
    </trkpt>
    <trkpt lat="35.0033463165" lon="34.0359210502">
        <ele>123.2</ele>
        <time>2023-04-19T08:58:53.096Z</time>
    </trkpt>
    <trkpt lat="35.0034821872" lon="34.0360491257">
        <ele>122.7</ele>
        <time>2023-04-19T08:59:09.096Z</time>
    </trkpt>
    <trkpt lat="35.0035034772" lon="34.0360958129">
        <ele>122.7</ele>
        <time>2023-04-19T08:59:13.096Z</time>
    </trkpt>
    <trkpt lat="35.0035795011" lon="34.0363966394">
        <ele>121.7</ele>
        <time>2023-04-19T08:59:34.096Z</time>
    </trkpt>
    <trkpt lat="35.0035806745" lon="34.0365375392">
        <ele>120.3</ele>
        <time>2023-04-19T08:59:51.096Z</time>
    </trkpt>
    <trkpt lat="35.0035974383" lon="34.0365189314">
        <ele>120.3</ele>
        <time>2023-04-19T09:00:03.096Z</time>
    </trkpt>
    <trkpt lat="35.0035965163" lon="34.0365188476">
        <ele>117.4</ele>
        <time>2023-04-19T09:00:42.096Z</time>
    </trkpt>
    <trkpt lat="35.0035929959" lon="34.0365185123">
        <ele>121.3</ele>
        <time>2023-04-19T09:01:58.096Z</time>
    </trkpt>
    <trkpt lat="35.0035948399" lon="34.0365182608">
        <ele>122.7</ele>
        <time>2023-04-19T09:02:01.096Z</time>
    </trkpt>
    <trkpt lat="35.0035903975" lon="34.03652329">
        <ele>121.3</ele>
        <time>2023-04-19T09:02:14.096Z</time>
    </trkpt>
    <trkpt lat="35.0035892241" lon="34.0365225356">
        <ele>121.3</ele>
        <time>2023-04-19T09:02:19.096Z</time>
    </trkpt>
    <trkpt lat="35.0035898946" lon="34.0365715697">
        <ele>121.3</ele>
        <time>2023-04-19T09:02:24.096Z</time>
    </trkpt>
    <trkpt lat="35.0035787467" lon="34.0365235414">
        <ele>121.3</ele>
        <time>2023-04-19T09:02:28.096Z</time>
    </trkpt>
    <trkpt lat="35.0035246834" lon="34.036171753">
        <ele>123.2</ele>
        <time>2023-04-19T09:02:50.096Z</time>
    </trkpt>
    <trkpt lat="35.0033306424" lon="34.0359171107">
        <ele>124.6</ele>
        <time>2023-04-19T09:03:11.096Z</time>
    </trkpt>
    <trkpt lat="35.0031355955" lon="34.035651572">
        <ele>124.6</ele>
        <time>2023-04-19T09:03:32.096Z</time>
    </trkpt>
    <trkpt lat="35.0029547978" lon="34.0353850275">
        <ele>125.6</ele>
        <time>2023-04-19T09:03:53.096Z</time>
    </trkpt>
    <trkpt lat="35.0028957054" lon="34.035148574">
        <ele>127.0</ele>
        <time>2023-04-19T09:04:10.096Z</time>
    </trkpt>
    <trkpt lat="35.0029687956" lon="34.0349602327">
        <ele>127.0</ele>
        <time>2023-04-19T09:04:25.096Z</time>
    </trkpt>
    <trkpt lat="35.00305756" lon="34.034746578">
        <ele>128.5</ele>
        <time>2023-04-19T09:04:42.096Z</time>
    </trkpt>
    <trkpt lat="35.003194185" lon="34.0346074384">
        <ele>129.9</ele>
        <time>2023-04-19T09:04:57.096Z</time>
    </trkpt>
    <trkpt lat="35.0032696221" lon="34.0344934445">
        <ele>130.4</ele>
        <time>2023-04-19T09:05:07.096Z</time>
    </trkpt>
    <trkpt lat="35.0034323148" lon="34.0343367029">
        <ele>132.3</ele>
        <time>2023-04-19T09:05:25.096Z</time>
    </trkpt>
    <trkpt lat="35.0034883898" lon="34.0342547279">
        <ele>133.3</ele>
        <time>2023-04-19T09:05:33.096Z</time>
    </trkpt>
    <trkpt lat="35.0035853684" lon="34.0340336971">
        <ele>135.2</ele>
        <time>2023-04-19T09:05:51.096Z</time>
    </trkpt>
    <trkpt lat="35.003592493" lon="34.0340092219">
        <ele>135.2</ele>
        <time>2023-04-19T09:05:53.096Z</time>
    </trkpt>
    <trkpt lat="35.0035715383" lon="34.0339155123">
        <ele>136.2</ele>
        <time>2023-04-19T09:06:00.096Z</time>
    </trkpt>
    <trkpt lat="35.0036547706" lon="34.0337326191">
        <ele>137.6</ele>
        <time>2023-04-19T09:06:16.096Z</time>
    </trkpt>
    <trkpt lat="35.0038460456" lon="34.0336166974">
        <ele>139.5</ele>
        <time>2023-04-19T09:06:36.096Z</time>
    </trkpt>
    <trkpt lat="35.0038455427" lon="34.0335243288">
        <ele>141.0</ele>
        <time>2023-04-19T09:06:48.096Z</time>
    </trkpt>
    <trkpt lat="35.003946377" lon="34.0335022006">
        <ele>142.4</ele>
        <time>2023-04-19T09:07:04.096Z</time>
    </trkpt>
    <trkpt lat="35.0040141027" lon="34.0334594529">
        <ele>144.3</ele>
        <time>2023-04-19T09:07:21.096Z</time>
    </trkpt>
    <trkpt lat="35.0039949082" lon="34.0332635678">
        <ele>147.2</ele>
        <time>2023-04-19T09:07:39.096Z</time>
    </trkpt>
    <trkpt lat="35.0041799806" lon="34.0330164693">
        <ele>150.1</ele>
        <time>2023-04-19T09:08:00.096Z</time>
    </trkpt>
    <trkpt lat="35.0044301804" lon="34.0330551099">
        <ele>151.5</ele>
        <time>2023-04-19T09:08:14.096Z</time>
    </trkpt>
    <trkpt lat="35.0044414122" lon="34.0330784116">
        <ele>151.5</ele>
        <time>2023-04-19T09:08:16.096Z</time>
    </trkpt>
    <trkpt lat="35.0044525601" lon="34.0332523361">
        <ele>151.1</ele>
        <time>2023-04-19T09:08:36.096Z</time>
    </trkpt>
    <trkpt lat="35.0044450164" lon="34.033321403">
        <ele>150.6</ele>
        <time>2023-04-19T09:08:54.096Z</time>
    </trkpt>
    <trkpt lat="35.0044472795" lon="34.0333557688">
        <ele>150.6</ele>
        <time>2023-04-19T09:08:57.096Z</time>
    </trkpt>
    <trkpt lat="35.0044687372" lon="34.0335970838">
        <ele>149.6</ele>
        <time>2023-04-19T09:09:18.096Z</time>
    </trkpt>
    <trkpt lat="35.0044677313" lon="34.0335982572">
        <ele>149.1</ele>
        <time>2023-04-19T09:09:44.096Z</time>
    </trkpt>
    <trkpt lat="35.004465133" lon="34.0336070582">
        <ele>149.1</ele>
        <time>2023-04-19T09:09:51.096Z</time>
    </trkpt>
    <trkpt lat="35.0044593494" lon="34.0336351376">
        <ele>148.7</ele>
        <time>2023-04-19T09:10:09.096Z</time>
    </trkpt>
    <trkpt lat="35.0044769514" lon="34.0338256583">
        <ele>147.7</ele>
        <time>2023-04-19T09:10:26.096Z</time>
    </trkpt>
    <trkpt lat="35.0044951402" lon="34.0340857487">
        <ele>145.8</ele>
        <time>2023-04-19T09:10:45.096Z</time>
    </trkpt>
    <trkpt lat="35.0045084674" lon="34.0343046002">
        <ele>144.3</ele>
        <time>2023-04-19T09:11:03.096Z</time>
    </trkpt>
    <trkpt lat="35.0045076292" lon="34.0343108866">
        <ele>143.8</ele>
        <time>2023-04-19T09:11:22.096Z</time>
    </trkpt>
    <trkpt lat="35.004504947" lon="34.0343127307">
        <ele>143.4</ele>
        <time>2023-04-19T09:11:36.096Z</time>
    </trkpt>
    <trkpt lat="35.0045106467" lon="34.0343235433">
        <ele>143.8</ele>
        <time>2023-04-19T09:12:24.096Z</time>
    </trkpt>
    <trkpt lat="35.004550796" lon="34.0343546402">
        <ele>143.4</ele>
        <time>2023-04-19T09:12:42.096Z</time>
    </trkpt>
    <trkpt lat="35.0045206212" lon="34.0343316738">
        <ele>143.8</ele>
        <time>2023-04-19T09:13:12.096Z</time>
    </trkpt>
    <trkpt lat="35.0045114849" lon="34.0343517065">
        <ele>143.4</ele>
        <time>2023-04-19T09:13:28.096Z</time>
    </trkpt>
    <trkpt lat="35.004538307" lon="34.0344159957">
        <ele>143.8</ele>
        <time>2023-04-19T09:13:35.096Z</time>
    </trkpt>
    <trkpt lat="35.0045792945" lon="34.0347148106">
        <ele>141.9</ele>
        <time>2023-04-19T09:13:56.096Z</time>
    </trkpt>
    <trkpt lat="35.0046283286" lon="34.0350139607">
        <ele>139.5</ele>
        <time>2023-04-19T09:14:18.096Z</time>
    </trkpt>
    <trkpt lat="35.0046667177" lon="34.0352254361">
        <ele>138.1</ele>
        <time>2023-04-19T09:14:34.096Z</time>
    </trkpt>
    <trkpt lat="35.0047085434" lon="34.035457531">
        <ele>136.6</ele>
        <time>2023-04-19T09:14:52.096Z</time>
    </trkpt>
    <trkpt lat="35.0047831424" lon="34.0357182082">
        <ele>134.7</ele>
        <time>2023-04-19T09:15:12.096Z</time>
    </trkpt>
    <trkpt lat="35.0048432406" lon="34.0359190386">
        <ele>133.3</ele>
        <time>2023-04-19T09:15:29.096Z</time>
    </trkpt>
    <trkpt lat="35.0048636086" lon="34.035968408">
        <ele>132.8</ele>
        <time>2023-04-19T09:15:34.096Z</time>
    </trkpt>
    <trkpt lat="35.004881043" lon="34.0361489542">
        <ele>131.8</ele>
        <time>2023-04-19T09:15:49.096Z</time>
    </trkpt>
    <trkpt lat="35.0048425701" lon="34.0362615231">
        <ele>130.9</ele>
        <time>2023-04-19T09:15:59.096Z</time>
    </trkpt>
    <trkpt lat="35.0048087072" lon="34.0363411512">
        <ele>129.9</ele>
        <time>2023-04-19T09:16:06.096Z</time>
    </trkpt>
    <trkpt lat="35.004815748" lon="34.0364338551">
        <ele>128.9</ele>
        <time>2023-04-19T09:16:19.096Z</time>
    </trkpt>
    <trkpt lat="35.004825471" lon="34.036467718">
        <ele>128.5</ele>
        <time>2023-04-19T09:16:22.096Z</time>
    </trkpt>
    <trkpt lat="35.0049392972" lon="34.0364606772">
        <ele>128.0</ele>
        <time>2023-04-19T09:16:38.096Z</time>
    </trkpt>
    <trkpt lat="35.0049697235" lon="34.0363474376">
        <ele>129.4</ele>
        <time>2023-04-19T09:16:54.096Z</time>
    </trkpt>
    <trkpt lat="35.0050080288" lon="34.0362463519">
        <ele>132.3</ele>
        <time>2023-04-19T09:17:22.096Z</time>
    </trkpt>
    <trkpt lat="35.0050897524" lon="34.0362158418">
        <ele>135.2</ele>
        <time>2023-04-19T09:17:47.096Z</time>
    </trkpt>
    <trkpt lat="35.0050711446" lon="34.036178207">
        <ele>137.6</ele>
        <time>2023-04-19T09:18:17.096Z</time>
    </trkpt>
    <trkpt lat="35.0051055942" lon="34.0362265706">
        <ele>137.6</ele>
        <time>2023-04-19T09:18:34.096Z</time>
    </trkpt>
    <trkpt lat="35.0051255431" lon="34.0362906922">
        <ele>137.6</ele>
        <time>2023-04-19T09:19:06.096Z</time>
    </trkpt>
    <trkpt lat="35.0050979666" lon="34.0363712423">
        <ele>138.1</ele>
        <time>2023-04-19T09:19:39.096Z</time>
    </trkpt>
    <trkpt lat="35.0050599966" lon="34.03641399">
        <ele>138.1</ele>
        <time>2023-04-19T09:20:23.096Z</time>
    </trkpt>
    <trkpt lat="35.0051372778" lon="34.03639731">
        <ele>138.1</ele>
        <time>2023-04-19T09:20:35.096Z</time>
    </trkpt>
    <trkpt lat="35.0051855575" lon="34.0364577435">
        <ele>138.6</ele>
        <time>2023-04-19T09:20:49.096Z</time>
    </trkpt>
    <trkpt lat="35.0051397923" lon="34.0361950547">
        <ele>138.1</ele>
        <time>2023-04-19T09:21:00.096Z</time>
    </trkpt>
    <trkpt lat="35.0050812028" lon="34.0359908715">
        <ele>137.6</ele>
        <time>2023-04-19T09:21:21.096Z</time>
    </trkpt>
    <trkpt lat="35.0050558057" lon="34.0362299234">
        <ele>135.7</ele>
        <time>2023-04-19T09:21:36.096Z</time>
    </trkpt>
    <trkpt lat="35.0050610863" lon="34.0362207871">
        <ele>136.2</ele>
        <time>2023-04-19T09:22:59.096Z</time>
    </trkpt>
    <trkpt lat="35.0050661992" lon="34.0362108964">
        <ele>135.7</ele>
        <time>2023-04-19T09:24:39.096Z</time>
    </trkpt>
    <trkpt lat="35.0050709769" lon="34.0362033527">
        <ele>135.7</ele>
        <time>2023-04-19T09:26:37.096Z</time>
    </trkpt>
    <trkpt lat="35.0050758384" lon="34.0361937974">
        <ele>135.7</ele>
        <time>2023-04-19T09:28:19.096Z</time>
    </trkpt>
    <trkpt lat="35.0050796941" lon="34.0361866727">
        <ele>135.7</ele>
        <time>2023-04-19T09:30:21.096Z</time>
    </trkpt>
    <trkpt lat="35.0050836336" lon="34.0361766145">
        <ele>135.7</ele>
        <time>2023-04-19T09:32:09.096Z</time>
    </trkpt>
    <trkpt lat="35.0050883275" lon="34.0361663047">
        <ele>135.7</ele>
        <time>2023-04-19T09:34:12.096Z</time>
    </trkpt>
    <trkpt lat="35.0050923508" lon="34.0361570846">
        <ele>135.7</ele>
        <time>2023-04-19T09:35:54.096Z</time>
    </trkpt>
    <trkpt lat="35.0050977152" lon="34.0361606888">
        <ele>135.7</ele>
        <time>2023-04-19T09:36:49.096Z</time>
    </trkpt>
    <trkpt lat="35.0051133055" lon="34.0361534804">
        <ele>135.7</ele>
        <time>2023-04-19T09:37:26.096Z</time>
    </trkpt>
    <trkpt lat="35.0051127188" lon="34.0361530613">
        <ele>135.7</ele>
        <time>2023-04-19T09:38:15.096Z</time>
    </trkpt>
    <trkpt lat="35.0051268004" lon="34.0361720044">
        <ele>135.7</ele>
        <time>2023-04-19T09:38:44.096Z</time>
    </trkpt>
    <trkpt lat="35.0051336735" lon="34.0361834876">
        <ele>135.7</ele>
        <time>2023-04-19T09:39:20.096Z</time>
    </trkpt>
    <trkpt lat="35.0051423069" lon="34.0362090524">
        <ele>135.7</ele>
        <time>2023-04-19T09:40:02.096Z</time>
    </trkpt>
    <trkpt lat="35.0051318295" lon="34.0362075437">
        <ele>136.2</ele>
        <time>2023-04-19T09:40:21.096Z</time>
    </trkpt>
    <trkpt lat="35.0050932728" lon="34.0362158418">
        <ele>135.7</ele>
        <time>2023-04-19T09:40:47.096Z</time>
    </trkpt>
    <trkpt lat="35.0050251279" lon="34.0362327732">
        <ele>133.8</ele>
        <time>2023-04-19T09:41:00.096Z</time>
    </trkpt>
    <trkpt lat="35.0049659517" lon="34.0363147482">
        <ele>130.9</ele>
        <time>2023-04-19T09:41:16.096Z</time>
    </trkpt>
    <trkpt lat="35.0049409736" lon="34.0364284907">
        <ele>128.9</ele>
        <time>2023-04-19T09:41:29.096Z</time>
    </trkpt>
    <trkpt lat="35.0049682986" lon="34.0364779439">
        <ele>127.5</ele>
        <time>2023-04-19T09:41:41.096Z</time>
    </trkpt>
    <trkpt lat="35.0049677119" lon="34.0364800394">
        <ele>128.0</ele>
        <time>2023-04-19T09:42:28.096Z</time>
    </trkpt>
    <trkpt lat="35.0049314182" lon="34.0365090407">
        <ele>127.5</ele>
        <time>2023-04-19T09:43:33.096Z</time>
    </trkpt>
    <trkpt lat="35.0048705656" lon="34.0365557279">
        <ele>127.0</ele>
        <time>2023-04-19T09:43:41.096Z</time>
    </trkpt>
    <trkpt lat="35.0047345273" lon="34.0366956219">
        <ele>126.1</ele>
        <time>2023-04-19T09:43:58.096Z</time>
    </trkpt>
    <trkpt lat="35.0045424141" lon="34.0367966238">
        <ele>124.6</ele>
        <time>2023-04-19T09:44:17.096Z</time>
    </trkpt>
    <trkpt lat="35.0044420827" lon="34.0370479133">
        <ele>122.7</ele>
        <time>2023-04-19T09:44:38.096Z</time>
    </trkpt>
    <trkpt lat="35.0043167733" lon="34.0373381786">
        <ele>119.8</ele>
        <time>2023-04-19T09:45:01.096Z</time>
    </trkpt>
    <trkpt lat="35.0042806473" lon="34.0374019649">
        <ele>119.8</ele>
        <time>2023-04-19T09:45:07.096Z</time>
    </trkpt>
    <trkpt lat="35.0042633805" lon="34.0374640748">
        <ele>118.9</ele>
        <time>2023-04-19T09:45:12.096Z</time>
    </trkpt>
    <trkpt lat="35.0041437708" lon="34.0377565194">
        <ele>116.9</ele>
        <time>2023-04-19T09:45:34.096Z</time>
    </trkpt>
    <trkpt lat="35.0040058047" lon="34.0380261652">
        <ele>115.0</ele>
        <time>2023-04-19T09:45:55.096Z</time>
    </trkpt>
    <trkpt lat="35.0038593728" lon="34.0383945499">
        <ele>112.6</ele>
        <time>2023-04-19T09:46:22.096Z</time>
    </trkpt>
    <trkpt lat="35.0038322993" lon="34.0384751">
        <ele>111.7</ele>
        <time>2023-04-19T09:46:28.096Z</time>
    </trkpt>
    <trkpt lat="35.0037470553" lon="34.0387092065">
        <ele>110.7</ele>
        <time>2023-04-19T09:46:45.096Z</time>
    </trkpt>
    <trkpt lat="35.003525354" lon="34.0389735717">
        <ele>108.3</ele>
        <time>2023-04-19T09:47:10.096Z</time>
    </trkpt>
    <trkpt lat="35.0034940895" lon="34.0392831154">
        <ele>106.4</ele>
        <time>2023-04-19T09:47:32.096Z</time>
    </trkpt>
    <trkpt lat="35.0035713706" lon="34.0396388434">
        <ele>104.4</ele>
        <time>2023-04-19T09:47:56.096Z</time>
    </trkpt>
    <trkpt lat="35.0036274455" lon="34.0397599619">
        <ele>103.5</ele>
        <time>2023-04-19T09:48:13.096Z</time>
    </trkpt>
    <trkpt lat="35.003668014" lon="34.0398186352">
        <ele>103.5</ele>
        <time>2023-04-19T09:48:18.096Z</time>
    </trkpt>
    <trkpt lat="35.0038983487" lon="34.0401131753">
        <ele>102.5</ele>
        <time>2023-04-19T09:48:43.096Z</time>
    </trkpt>
    <trkpt lat="35.0040840916" lon="34.040309228">
        <ele>101.1</ele>
        <time>2023-04-19T09:49:02.096Z</time>
    </trkpt>
    <trkpt lat="35.004315516" lon="34.040437974">
        <ele>99.2</ele>
        <time>2023-04-19T09:49:22.096Z</time>
    </trkpt>
    <trkpt lat="35.0043609459" lon="34.0407656226">
        <ele>97.2</ele>
        <time>2023-04-19T09:49:45.096Z</time>
    </trkpt>
    <trkpt lat="35.0043445174" lon="34.0408016648">
        <ele>96.8</ele>
        <time>2023-04-19T09:49:56.096Z</time>
    </trkpt>
    <trkpt lat="35.0043187849" lon="34.0408139024">
        <ele>96.8</ele>
        <time>2023-04-19T09:50:02.096Z</time>
    </trkpt>
    <trkpt lat="35.0042996742" lon="34.0408089571">
        <ele>96.8</ele>
        <time>2023-04-19T09:50:04.096Z</time>
    </trkpt>
    <trkpt lat="35.0041563436" lon="34.0408115555">
        <ele>96.3</ele>
        <time>2023-04-19T09:50:26.096Z</time>
    </trkpt>
    <trkpt lat="35.0041351374" lon="34.0408137348">
        <ele>96.3</ele>
        <time>2023-04-19T09:50:28.096Z</time>
    </trkpt>
    <trkpt lat="35.004022317" lon="34.0408226196">
        <ele>95.8</ele>
        <time>2023-04-19T09:50:48.096Z</time>
    </trkpt>
    <trkpt lat="35.0039675832" lon="34.0408330131">
        <ele>95.8</ele>
        <time>2023-04-19T09:50:55.096Z</time>
    </trkpt>
    <trkpt lat="35.0037623104" lon="34.0409079473">
        <ele>94.8</ele>
        <time>2023-04-19T09:51:15.096Z</time>
    </trkpt>
    <trkpt lat="35.0034982804" lon="34.0410780162">
        <ele>92.4</ele>
        <time>2023-04-19T09:51:38.096Z</time>
    </trkpt>
    <trkpt lat="35.0032278802" lon="34.0413091052">
        <ele>90.0</ele>
        <time>2023-04-19T09:52:04.096Z</time>
    </trkpt>
    <trkpt lat="35.0030811131" lon="34.0415462293">
        <ele>92.4</ele>
        <time>2023-04-19T09:52:26.096Z</time>
    </trkpt>
    <trkpt lat="35.0029661134" lon="34.0417463053">
        <ele>93.9</ele>
        <time>2023-04-19T09:52:45.096Z</time>
    </trkpt>
    <trkpt lat="35.0028628483" lon="34.0420265961">
        <ele>95.3</ele>
        <time>2023-04-19T09:53:08.096Z</time>
    </trkpt>
    <trkpt lat="35.0028923526" lon="34.0423322842">
        <ele>94.8</ele>
        <time>2023-04-19T09:53:28.096Z</time>
    </trkpt>
    <trkpt lat="35.0028584059" lon="34.042679714">
        <ele>93.4</ele>
        <time>2023-04-19T09:53:50.096Z</time>
    </trkpt>
    <trkpt lat="35.0026913546" lon="34.042914575">
        <ele>93.4</ele>
        <time>2023-04-19T09:54:10.096Z</time>
    </trkpt>
    <trkpt lat="35.002443837" lon="34.0430415608">
        <ele>92.9</ele>
        <time>2023-04-19T09:54:30.096Z</time>
    </trkpt>
    <trkpt lat="35.0021378975" lon="34.0432544611">
        <ele>92.9</ele>
        <time>2023-04-19T09:54:56.096Z</time>
    </trkpt>
    <trkpt lat="35.001847716" lon="34.0434505977">
        <ele>92.9</ele>
        <time>2023-04-19T09:55:21.096Z</time>
    </trkpt>
    <trkpt lat="35.0015544333" lon="34.0437161364">
        <ele>92.9</ele>
        <time>2023-04-19T09:55:49.096Z</time>
    </trkpt>
    <trkpt lat="35.0013305526" lon="34.043990979">
        <ele>92.4</ele>
        <time>2023-04-19T09:56:13.096Z</time>
    </trkpt>
    <trkpt lat="35.0011308957" lon="34.0441616345">
        <ele>91.9</ele>
        <time>2023-04-19T09:56:32.096Z</time>
    </trkpt>
    <trkpt lat="35.000879271" lon="34.0443547536">
        <ele>91.9</ele>
        <time>2023-04-19T09:56:55.096Z</time>
    </trkpt>
    <trkpt lat="35.0006497744" lon="34.0445803944">
        <ele>91.9</ele>
        <time>2023-04-19T09:57:17.096Z</time>
    </trkpt>
    <trkpt lat="35.0004148297" lon="34.044836713">
        <ele>91.0</ele>
        <time>2023-04-19T09:57:41.096Z</time>
    </trkpt>
    <trkpt lat="35.0001274981" lon="34.045071071">
        <ele>91.0</ele>
        <time>2023-04-19T09:58:08.096Z</time>
    </trkpt>
    <trkpt lat="34.9998553377" lon="34.0452610888">
        <ele>91.0</ele>
        <time>2023-04-19T09:58:32.096Z</time>
    </trkpt>
    <trkpt lat="34.9997161143" lon="34.045467535">
        <ele>90.5</ele>
        <time>2023-04-19T09:58:50.096Z</time>
    </trkpt>
    <trkpt lat="34.9996937346" lon="34.0455002245">
        <ele>90.5</ele>
        <time>2023-04-19T09:59:07.096Z</time>
    </trkpt>
    <trkpt lat="34.9996908009" lon="34.045513887">
        <ele>90.5</ele>
        <time>2023-04-19T09:59:16.096Z</time>
    </trkpt>
    <trkpt lat="34.9996581115" lon="34.0455687884">
        <ele>90.5</ele>
        <time>2023-04-19T09:59:21.096Z</time>
    </trkpt>
    <trkpt lat="34.9994431157" lon="34.0457543638">
        <ele>90.5</ele>
        <time>2023-04-19T09:59:42.096Z</time>
    </trkpt>
    <trkpt lat="34.9992203247" lon="34.0458939224">
        <ele>90.0</ele>
        <time>2023-04-19T10:00:01.096Z</time>
    </trkpt>
    <trkpt lat="34.9988892395" lon="34.0461643226">
        <ele>90.0</ele>
        <time>2023-04-19T10:00:30.096Z</time>
    </trkpt>
    <trkpt lat="34.9986050092" lon="34.0463618003">
        <ele>89.1</ele>
        <time>2023-04-19T10:00:54.096Z</time>
    </trkpt>
    <trkpt lat="34.9983412307" lon="34.0465246607">
        <ele>88.6</ele>
        <time>2023-04-19T10:01:16.096Z</time>
    </trkpt>
    <trkpt lat="34.998271158" lon="34.0466268361">
        <ele>88.6</ele>
        <time>2023-04-19T10:01:24.096Z</time>
    </trkpt>
    <trkpt lat="34.9981942959" lon="34.0469447616">
        <ele>88.1</ele>
        <time>2023-04-19T10:01:45.096Z</time>
    </trkpt>
    <trkpt lat="34.9978953972" lon="34.047060851">
        <ele>88.1</ele>
        <time>2023-04-19T10:02:09.096Z</time>
    </trkpt>
    <trkpt lat="34.9975698441" lon="34.0470870025">
        <ele>88.1</ele>
        <time>2023-04-19T10:02:33.096Z</time>
    </trkpt>
    <trkpt lat="34.9972949177" lon="34.0472862404">
        <ele>87.1</ele>
        <time>2023-04-19T10:02:56.096Z</time>
    </trkpt>
    <trkpt lat="34.9971302133" lon="34.0475558862">
        <ele>87.1</ele>
        <time>2023-04-19T10:03:18.096Z</time>
    </trkpt>
    <trkpt lat="34.9970430415" lon="34.0479039866">
        <ele>87.1</ele>
        <time>2023-04-19T10:03:40.096Z</time>
    </trkpt>
    <trkpt lat="34.996827459" lon="34.0481605567">
        <ele>87.1</ele>
        <time>2023-04-19T10:04:03.096Z</time>
    </trkpt>
    <trkpt lat="34.9965524487" lon="34.0482317191">
        <ele>87.6</ele>
        <time>2023-04-19T10:04:25.096Z</time>
    </trkpt>
    <trkpt lat="34.996453207" lon="34.0484840982">
        <ele>87.6</ele>
        <time>2023-04-19T10:04:43.096Z</time>
    </trkpt>
    <trkpt lat="34.9963276461" lon="34.0487628803">
        <ele>87.6</ele>
        <time>2023-04-19T10:05:02.096Z</time>
    </trkpt>
    <trkpt lat="34.996155398" lon="34.049064545">
        <ele>87.6</ele>
        <time>2023-04-19T10:05:24.096Z</time>
    </trkpt>
    <trkpt lat="34.9959309306" lon="34.0493685566">
        <ele>87.1</ele>
        <time>2023-04-19T10:05:48.096Z</time>
    </trkpt>
    <trkpt lat="34.9957260769" lon="34.0496332571">
        <ele>86.7</ele>
        <time>2023-04-19T10:06:10.096Z</time>
    </trkpt>
    <trkpt lat="34.9954361469" lon="34.049955206">
        <ele>85.2</ele>
        <time>2023-04-19T10:06:39.096Z</time>
    </trkpt>
    <trkpt lat="34.9951788224" lon="34.0501567908">
        <ele>85.2</ele>
        <time>2023-04-19T10:07:02.096Z</time>
    </trkpt>
    <trkpt lat="34.9948573764" lon="34.0503460541">
        <ele>83.8</ele>
        <time>2023-04-19T10:07:29.096Z</time>
    </trkpt>
    <trkpt lat="34.9946428835" lon="34.0505602956">
        <ele>83.8</ele>
        <time>2023-04-19T10:07:51.096Z</time>
    </trkpt>
    <trkpt lat="34.9943980481" lon="34.0507819969">
        <ele>83.8</ele>
        <time>2023-04-19T10:08:14.096Z</time>
    </trkpt>
    <trkpt lat="34.9941833876" lon="34.0510233957">
        <ele>82.8</ele>
        <time>2023-04-19T10:08:36.096Z</time>
    </trkpt>
    <trkpt lat="34.9939216208" lon="34.0512260702">
        <ele>81.8</ele>
        <time>2023-04-19T10:08:59.096Z</time>
    </trkpt>
    <trkpt lat="34.993673265" lon="34.0514191054">
        <ele>80.4</ele>
        <time>2023-04-19T10:09:21.096Z</time>
    </trkpt>
    <trkpt lat="34.9933565967" lon="34.051462356">
        <ele>80.4</ele>
        <time>2023-04-19T10:09:45.096Z</time>
    </trkpt>
    <trkpt lat="34.9932173733" lon="34.0516249649">
        <ele>79.5</ele>
        <time>2023-04-19T10:10:05.096Z</time>
    </trkpt>
    <trkpt lat="34.9932113383" lon="34.0516247973">
        <ele>79.5</ele>
        <time>2023-04-19T10:10:12.096Z</time>
    </trkpt>
    <trkpt lat="34.993190635" lon="34.0516781062">
        <ele>79.5</ele>
        <time>2023-04-19T10:10:16.096Z</time>
    </trkpt>
    <trkpt lat="34.9931536708" lon="34.0517508611">
        <ele>79.5</ele>
        <time>2023-04-19T10:10:22.096Z</time>
    </trkpt>
    <trkpt lat="34.993140595" lon="34.0519049205">
        <ele>79.0</ele>
        <time>2023-04-19T10:10:37.096Z</time>
    </trkpt>
    <trkpt lat="34.9931412656" lon="34.0519054234">
        <ele>79.0</ele>
        <time>2023-04-19T10:10:47.096Z</time>
    </trkpt>
    <trkpt lat="34.9931488931" lon="34.051982956">
        <ele>79.0</ele>
        <time>2023-04-19T10:10:53.096Z</time>
    </trkpt>
    <trkpt lat="34.9931646511" lon="34.0523689426">
        <ele>79.0</ele>
        <time>2023-04-19T10:11:17.096Z</time>
    </trkpt>
    <trkpt lat="34.9931636453" lon="34.0526424441">
        <ele>78.5</ele>
        <time>2023-04-19T10:11:34.096Z</time>
    </trkpt>
    <trkpt lat="34.9931462947" lon="34.0527368244">
        <ele>78.5</ele>
        <time>2023-04-19T10:11:40.096Z</time>
    </trkpt>
    <trkpt lat="34.9930589553" lon="34.0530877747">
        <ele>77.5</ele>
        <time>2023-04-19T10:12:03.096Z</time>
    </trkpt>
    <trkpt lat="34.9930754676" lon="34.0533560794">
        <ele>76.6</ele>
        <time>2023-04-19T10:12:20.096Z</time>
    </trkpt>
    <trkpt lat="34.9931443669" lon="34.0537216142">
        <ele>76.6</ele>
        <time>2023-04-19T10:12:43.096Z</time>
    </trkpt>
    <trkpt lat="34.9932289403" lon="34.0539781842">
        <ele>76.6</ele>
        <time>2023-04-19T10:13:00.096Z</time>
    </trkpt>
    <trkpt lat="34.9933210574" lon="34.0544223413">
        <ele>77.0</ele>
        <time>2023-04-19T10:13:28.096Z</time>
    </trkpt>
    <trkpt lat="34.9933451973" lon="34.054877311">
        <ele>78.0</ele>
        <time>2023-04-19T10:13:56.096Z</time>
    </trkpt>
    <trkpt lat="34.9932113383" lon="34.0552852582">
        <ele>79.0</ele>
        <time>2023-04-19T10:14:21.096Z</time>
    </trkpt>
    <trkpt lat="34.9930770602" lon="34.0554838255">
        <ele>79.0</ele>
        <time>2023-04-19T10:14:37.096Z</time>
    </trkpt>
    <trkpt lat="34.9928612262" lon="34.0557400603">
        <ele>79.5</ele>
        <time>2023-04-19T10:14:59.096Z</time>
    </trkpt>
    <trkpt lat="34.9926682748" lon="34.0559925232">
        <ele>79.9</ele>
        <time>2023-04-19T10:15:20.096Z</time>
    </trkpt>
    <trkpt lat="34.9924582243" lon="34.0562465787">
        <ele>79.9</ele>
        <time>2023-04-19T10:15:42.096Z</time>
    </trkpt>
    <trkpt lat="34.9923285563" lon="34.0565002151">
        <ele>80.4</ele>
        <time>2023-04-19T10:16:00.096Z</time>
    </trkpt>
    <trkpt lat="34.9923132174" lon="34.0565658454">
        <ele>79.9</ele>
        <time>2023-04-19T10:16:04.096Z</time>
    </trkpt>
    <trkpt lat="34.9920906778" lon="34.0569741279">
        <ele>79.5</ele>
        <time>2023-04-19T10:16:33.096Z</time>
    </trkpt>
    <trkpt lat="34.991940055" lon="34.0573204681">
        <ele>79.0</ele>
        <time>2023-04-19T10:16:57.096Z</time>
    </trkpt>
    <trkpt lat="34.9918418191" lon="34.0576834045">
        <ele>78.5</ele>
        <time>2023-04-19T10:17:21.096Z</time>
    </trkpt>
    <trkpt lat="34.9916474428" lon="34.0580483526">
        <ele>79.0</ele>
        <time>2023-04-19T10:17:48.096Z</time>
    </trkpt>
    <trkpt lat="34.9914675672" lon="34.0583736543">
        <ele>79.0</ele>
        <time>2023-04-19T10:18:13.096Z</time>
    </trkpt>
    <trkpt lat="34.9913332891" lon="34.0587099362">
        <ele>80.4</ele>
        <time>2023-04-19T10:18:37.096Z</time>
    </trkpt>
    <trkpt lat="34.9912115" lon="34.0590674244">
        <ele>80.4</ele>
        <time>2023-04-19T10:19:01.096Z</time>
    </trkpt>
    <trkpt lat="34.9910297804" lon="34.0594081488">
        <ele>79.9</ele>
        <time>2023-04-19T10:19:27.096Z</time>
    </trkpt>
    <trkpt lat="34.9908412714" lon="34.0597483702">
        <ele>79.9</ele>
        <time>2023-04-19T10:19:54.096Z</time>
    </trkpt>
    <trkpt lat="34.9907611404" lon="34.0599079616">
        <ele>79.9</ele>
        <time>2023-04-19T10:20:07.096Z</time>
    </trkpt>
    <trkpt lat="34.9906272814" lon="34.0601058584">
        <ele>79.9</ele>
        <time>2023-04-19T10:20:24.096Z</time>
    </trkpt>
    <trkpt lat="34.9904401135" lon="34.0604658611">
        <ele>80.4</ele>
        <time>2023-04-19T10:20:52.096Z</time>
    </trkpt>
    <trkpt lat="34.99030563425199" lon="34.06074095467413">
        <ele>80.4</ele>
        <time>2023-04-19T10:21:05.596Z</time>
    </trkpt>
    </trkseg>
</trk>
</gpx>